Chernivtsi International Airport


Codes: UKLN/CWC
Name: Chernivtsi International Airport
City: Chernivtsi
Country: Ukraine
Elevation: 826 ft.
Wikipedia:

Photos at Chernivtsi International Airport


   Photos courtesy of SpottingLog. You can add your own sightings and photos by signing up for a free trial today.



No photos found.

Weather at Chernivtsi International Airport


Time (UTC)DescriptionTempratureWindCloud coverageVisibilityPressureHumidity
19-Apr-2024 03:00Scattered Clouds4°C16 mph, NW39%10000m1011hPa79%
19-Apr-2024 06:00Scattered Clouds4°C16 mph, NW35%10000m1012hPa75%
19-Apr-2024 09:00Broken Clouds7°C13 mph, NW59%10000m1012hPa59%
19-Apr-2024 12:00Light Rain9°C9 mph, NW84%10000m1012hPa51%
19-Apr-2024 15:00Light Rain9°C2 mph, W94%10000m1012hPa55%
19-Apr-2024 18:00Broken Clouds5°C7 mph, SE51%10000m1013hPa81%
19-Apr-2024 21:00Clear Sky3°C4 mph, S8%10000m1013hPa89%
20-Apr-2024 00:00Clear Sky2°C4 mph, S9%10000m1012hPa90%
20-Apr-2024 03:00Clear Sky2°C4 mph, SE4%10000m1013hPa85%
20-Apr-2024 06:00Clear Sky6°C4 mph, SE5%10000m1013hPa66%
20-Apr-2024 09:00Clear Sky12°C7 mph, SE5%10000m1013hPa53%
20-Apr-2024 12:00Clear Sky14°C7 mph, SE6%10000m1011hPa42%
20-Apr-2024 15:00Broken Clouds14°C11 mph, SE61%10000m1011hPa50%
20-Apr-2024 18:00Broken Clouds9°C4 mph, SE81%10000m1013hPa66%
20-Apr-2024 21:00Overcast Clouds8°C2 mph, N100%10000m1013hPa68%
21-Apr-2024 00:00Overcast Clouds7°C4 mph, NW100%10000m1012hPa74%
21-Apr-2024 03:00Overcast Clouds6°C7 mph, W100%10000m1013hPa81%
21-Apr-2024 06:00Light Rain6°C13 mph, NW100%10000m1013hPa83%
21-Apr-2024 09:00Light Rain9°C16 mph, NW100%10000m1011hPa75%
21-Apr-2024 12:00Light Rain8°C16 mph, NW100%10000m1011hPa82%
21-Apr-2024 15:00Light Rain8°C16 mph, NW100%10000m1011hPa87%
21-Apr-2024 18:00Light Rain7°C13 mph, NW100%10000m1012hPa92%
21-Apr-2024 21:00Light Rain6°C18 mph, NW100%10000m1012hPa89%
22-Apr-2024 00:00Light Rain6°C16 mph, NW100%10000m1013hPa88%
22-Apr-2024 03:00Overcast Clouds5°C13 mph, NW100%10000m1014hPa90%
22-Apr-2024 06:00Overcast Clouds5°C16 mph, NW100%10000m1015hPa89%
22-Apr-2024 09:00Overcast Clouds7°C16 mph, NW91%10000m1016hPa75%
22-Apr-2024 12:00Overcast Clouds8°C13 mph, NW96%10000m1016hPa71%
22-Apr-2024 15:00Overcast Clouds10°C11 mph, NW100%10000m1016hPa62%
22-Apr-2024 18:00Overcast Clouds7°C4 mph, NW100%10000m1018hPa75%
22-Apr-2024 21:00Overcast Clouds7°C7 mph, W100%10000m1020hPa77%
23-Apr-2024 00:00Overcast Clouds5°C4 mph, W98%10000m1020hPa83%
23-Apr-2024 03:00Overcast Clouds4°C4 mph, NW96%10000m1021hPa78%
23-Apr-2024 06:00Overcast Clouds6°C2 mph, NW95%10000m1021hPa68%
23-Apr-2024 09:00Broken Clouds10°C2 mph, E68%10000m1020hPa57%
23-Apr-2024 12:00Broken Clouds11°C7 mph, SE84%10000m1019hPa59%
23-Apr-2024 15:00Overcast Clouds11°C7 mph, E100%10000m1016hPa63%
23-Apr-2024 18:00Overcast Clouds10°C7 mph, E100%10000m1014hPa74%
23-Apr-2024 21:00Light Rain8°C13 mph, E100%10000m1011hPa90%
24-Apr-2024 00:00Light Rain9°C18 mph, SE100%10000m1008hPa92%